1°C Temp
'.PHP_EOL;
-2°C Dewpoint
81% Humidity
Temperature
8 KM/H
5 MPH
4 KTS
110°
East South
East

Wind
Clear
Pressure 1018.92 (hPa)- 30.09 (in)
Visibility 6.2 (mi) - 10 (km)

Current Conditions
EGFF
Location Cardiff International 58(mi)
Metar:
EGFF 172320Z AUTO 11004KT 9999 NCD 01/M02 Q1019
Thu 17th January 23:20 pm

Airport
  Metar Aviation API Data Provided by https://www.checkwx.com/